createdAt,value
2022-11-16T00:01:38.975Z,90.74
2022-11-16T00:04:41.626Z,90.89
2022-11-16T00:07:44.094Z,90.55
2022-11-16T00:10:46.647Z,90.22
2022-11-16T00:13:57.492Z,90.55
2022-11-16T00:17:00.388Z,90.72
2022-11-16T00:20:02.954Z,89.93
2022-11-16T00:23:05.448Z,90.02
2022-11-16T00:26:09.935Z,90.44
2022-11-16T00:29:16.004Z,90.09
2022-11-16T00:32:18.423Z,89.62
2022-11-16T00:35:21.005Z,89.57
2022-11-16T00:38:23.923Z,89.77
2022-11-16T00:41:26.341Z,90.06
2022-11-16T00:44:30.295Z,89.70
2022-11-16T00:47:32.784Z,90.15
2022-11-16T00:50:35.623Z,90.28
2022-11-16T00:53:38.967Z,90.54
2022-11-16T00:56:42.671Z,90.14
2022-11-16T00:59:47.075Z,90.45
2022-11-16T01:02:49.593Z,90.28
2022-11-16T01:05:52.137Z,89.83
2022-11-16T01:08:54.537Z,89.97
2022-11-16T01:12:12.745Z,90.79
2022-11-16T01:15:18.727Z,90.90
2022-11-16T01:18:21.137Z,90.20
2022-11-16T01:21:24.163Z,89.90
2022-11-16T01:24:27.430Z,89.27
2022-11-16T01:27:29.933Z,89.90
2022-11-16T01:30:36.279Z,89.43
2022-11-16T01:33:42.761Z,89.62
2022-11-16T01:36:53.803Z,90.02
2022-11-16T01:39:56.713Z,90.58
2022-11-16T01:42:59.534Z,90.29
2022-11-16T01:46:03.370Z,90.46
2022-11-16T01:49:10.813Z,90.29
2022-11-16T01:52:16.738Z,90.49
2022-11-16T01:55:19.817Z,91.31
2022-11-16T01:58:37.574Z,90.86
2022-11-16T02:01:51.764Z,90.72
2022-11-16T02:04:57.058Z,90.40
2022-11-16T02:08:50.173Z,90.33
2022-11-16T02:12:09.253Z,90.49
2022-11-16T02:15:20.542Z,90.81
2022-11-16T02:18:38.371Z,90.77
2022-11-16T02:21:44.889Z,90.76
2022-11-16T02:25:00.337Z,91.06
2022-11-16T02:28:16.610Z,90.23
2022-11-16T02:31:28.160Z,90.05
2022-11-16T02:34:36.050Z,90.42
2022-11-16T02:37:43.835Z,90.14
2022-11-16T02:40:50.187Z,90.49
2022-11-16T02:44:02.453Z,90.86
2022-11-16T02:47:11.562Z,90.70
2022-11-16T02:50:18.686Z,90.73
2022-11-16T02:53:23.064Z,90.67
2022-11-16T02:56:27.370Z,91.00
2022-11-16T02:59:36.008Z,90.76
2022-11-16T03:02:48.153Z,91.15
2022-11-16T03:05:53.687Z,90.56
2022-11-16T03:09:01.868Z,90.83
2022-11-16T03:12:11.064Z,90.93
2022-11-16T03:15:13.856Z,91.44
2022-11-16T03:18:19.719Z,90.87
2022-11-16T03:21:36.906Z,90.69
2022-11-16T03:24:40.415Z,90.96
2022-11-16T03:27:49.922Z,91.02
2022-11-16T03:30:58.749Z,91.21
2022-11-16T03:34:10.470Z,91.21
2022-11-16T03:37:15.201Z,90.94
2022-11-16T03:40:19.247Z,91.45
2022-11-16T03:43:26.584Z,91.69
2022-11-16T03:46:30.889Z,92.18
2022-11-16T03:49:34.936Z,91.62
2022-11-16T03:52:38.383Z,91.62
2022-11-16T03:55:43.473Z,91.79
2022-11-16T03:58:49.771Z,91.35
2022-11-16T04:01:53.535Z,91.16
2022-11-16T04:05:17.164Z,91.01
2022-11-16T04:08:38.715Z,91.23
2022-11-16T04:12:00.363Z,91.38
2022-11-16T04:15:21.294Z,91.18
2022-11-16T04:18:42.973Z,90.89
2022-11-16T04:22:11.996Z,90.98
2022-11-16T04:25:18.291Z,90.97
2022-11-16T04:28:23.799Z,90.68
2022-11-16T04:31:48.357Z,90.44
2022-11-16T04:35:09.966Z,91.19
2022-11-16T04:38:14.425Z,91.72
2022-11-16T04:41:35.382Z,91.47
2022-11-16T04:44:56.638Z,91.00
2022-11-16T04:48:02.265Z,91.07
2022-11-16T04:51:07.620Z,91.15
2022-11-16T04:54:12.524Z,91.06
2022-11-16T04:57:15.650Z,90.65
2022-11-16T05:00:20.140Z,90.76
2022-11-16T05:03:23.064Z,91.18
2022-11-16T05:06:26.493Z,91.08
2022-11-16T05:09:30.847Z,91.34
2022-11-16T05:12:34.191Z,91.26
2022-11-16T05:15:39.166Z,90.46
2022-11-16T05:18:41.783Z,90.89
2022-11-16T05:21:44.812Z,90.76
2022-11-16T05:24:49.327Z,90.41
2022-11-16T05:27:51.957Z,90.99
2022-11-16T05:30:54.398Z,90.94
2022-11-16T05:33:59.118Z,91.16
2022-11-16T05:37:01.716Z,91.20
2022-11-16T05:40:08.126Z,91.54
2022-11-16T05:43:23.151Z,91.03
2022-11-16T05:46:37.010Z,91.56
2022-11-16T05:49:40.961Z,91.11
2022-11-16T05:52:43.794Z,91.00
2022-11-16T05:55:49.025Z,90.25
2022-11-16T05:58:53.747Z,90.77
2022-11-16T06:01:57.882Z,90.77
2022-11-16T06:05:02.071Z,90.88
2022-11-16T06:08:05.439Z,90.56
2022-11-16T06:11:10.716Z,90.73
2022-11-16T06:14:15.989Z,91.35
2022-11-16T06:17:19.193Z,90.90
2022-11-16T06:20:21.965Z,90.96
2022-11-16T06:23:27.508Z,90.99
2022-11-16T06:26:31.745Z,90.70
2022-11-16T06:29:36.277Z,90.44
2022-11-16T06:32:39.110Z,90.75
2022-11-16T06:35:43.443Z,90.56
2022-11-16T06:38:47.284Z,90.53
2022-11-16T06:41:51.773Z,90.58
2022-11-16T06:44:55.271Z,90.21
2022-11-16T06:48:02.900Z,89.99
2022-11-16T06:51:06.226Z,90.02
2022-11-16T06:54:08.988Z,90.80
2022-11-16T06:57:13.367Z,90.06
2022-11-16T07:00:39.878Z,90.64
2022-11-16T07:03:47.064Z,90.45
2022-11-16T07:06:49.688Z,90.30
2022-11-16T07:09:53.426Z,89.97
2022-11-16T07:13:01.961Z,90.16
2022-11-16T07:16:06.087Z,90.28
2022-11-16T07:19:10.169Z,90.75
2022-11-16T07:22:14.211Z,89.96
2022-11-16T07:25:21.150Z,90.07
2022-11-16T07:28:27.908Z,90.05
2022-11-16T07:31:31.344Z,90.00
2022-11-16T07:34:54.124Z,90.07
2022-11-16T07:37:56.762Z,90.24
2022-11-16T07:41:04.359Z,90.58
2022-11-16T07:44:12.328Z,90.77
2022-11-16T07:47:17.583Z,90.32
2022-11-16T07:50:20.224Z,90.33
2022-11-16T07:53:24.340Z,89.90
2022-11-16T07:56:27.372Z,89.75
2022-11-16T07:59:31.768Z,89.77
2022-11-16T08:02:35.231Z,89.59
2022-11-16T08:05:39.954Z,89.54
2022-11-16T08:08:44.465Z,89.84
2022-11-16T08:11:47.295Z,90.00
2022-11-16T08:14:51.448Z,89.53
2022-11-16T08:17:54.351Z,88.61
2022-11-16T08:20:58.835Z,89.21
2022-11-16T08:24:01.883Z,88.76
2022-11-16T08:27:15.340Z,88.93
2022-11-16T08:30:23.929Z,89.55
2022-11-16T08:33:29.193Z,88.81
2022-11-16T08:36:32.127Z,88.64
2022-11-16T08:39:35.551Z,88.98
2022-11-16T08:42:43.473Z,88.89
2022-11-16T08:46:04.419Z,88.04
2022-11-16T08:49:13.394Z,87.93
2022-11-16T08:52:18.350Z,87.55
2022-11-16T08:55:22.547Z,86.58
2022-11-16T08:58:25.506Z,86.49
2022-11-16T09:01:32.551Z,86.95
2022-11-16T09:04:37.288Z,87.01
2022-11-16T09:07:40.934Z,86.98
2022-11-16T09:10:44.111Z,87.04
2022-11-16T09:13:50.281Z,86.52
2022-11-16T09:16:57.105Z,85.94
2022-11-16T09:20:00.385Z,86.01
2022-11-16T09:23:03.591Z,85.28
2022-11-16T09:26:07.146Z,84.62
2022-11-16T09:29:12.729Z,84.12
2022-11-16T09:32:18.624Z,83.49
2022-11-16T09:35:21.448Z,85.12
2022-11-16T09:38:40.228Z,85.06
2022-11-16T09:42:06.651Z,84.85
2022-11-16T09:45:19.622Z,84.59
2022-11-16T09:48:25.069Z,85.51
2022-11-16T09:51:32.579Z,85.69
2022-11-16T09:54:42.583Z,84.50
2022-11-16T09:57:46.806Z,84.95
2022-11-16T10:00:56.830Z,84.83
2022-11-16T10:04:09.097Z,84.17
2022-11-16T10:07:15.882Z,84.39
2022-11-16T10:10:30.328Z,84.56
2022-11-16T10:13:49.722Z,84.03
2022-11-16T10:16:58.361Z,83.78
2022-11-16T10:20:16.851Z,83.68
2022-11-16T10:23:28.830Z,83.55
2022-11-16T10:26:38.545Z,83.96
2022-11-16T10:29:53.678Z,83.99
2022-11-16T10:33:00.411Z,82.04
2022-11-16T10:36:11.113Z,80.70
2022-11-16T10:39:16.455Z,80.19
2022-11-16T10:42:23.265Z,78.99
2022-11-16T10:45:32.601Z,77.67
2022-11-16T10:48:42.857Z,77.32
2022-11-16T10:51:46.926Z,78.18
2022-11-16T10:54:49.573Z,78.38
2022-11-16T10:57:58.350Z,81.05
2022-11-16T11:01:01.790Z,80.45
2022-11-16T11:04:17.389Z,81.66
2022-11-16T11:07:31.288Z,81.40
2022-11-16T11:10:35.898Z,81.96
2022-11-16T11:13:38.626Z,81.92
2022-11-16T11:16:42.055Z,82.30
2022-11-16T11:19:44.566Z,82.50
2022-11-16T11:22:53.500Z,80.31
2022-11-16T11:25:59.154Z,79.42
2022-11-16T11:29:07.421Z,79.89
2022-11-16T11:32:20.754Z,80.52
2022-11-16T11:35:34.699Z,80.72
2022-11-16T11:38:56.127Z,81.00
2022-11-16T11:42:05.684Z,81.19
2022-11-16T11:45:13.170Z,81.64
2022-11-16T11:48:29.712Z,81.96
2022-11-16T11:51:36.009Z,82.20
2022-11-16T11:54:46.062Z,83.04
2022-11-16T11:57:53.768Z,82.93
2022-11-16T12:01:23.758Z,82.96
2022-11-16T12:05:01.581Z,83.15
2022-11-16T12:08:20.291Z,83.17
2022-11-16T12:11:32.491Z,81.86
2022-11-16T12:14:51.350Z,82.88
2022-11-16T12:18:03.761Z,82.64
2022-11-16T12:21:12.816Z,82.96
2022-11-16T12:24:29.574Z,83.35
2022-11-16T12:27:46.138Z,83.64
2022-11-16T12:31:01.424Z,84.13
2022-11-16T12:34:15.685Z,84.13
2022-11-16T12:37:25.048Z,84.44
2022-11-16T12:40:35.889Z,84.76
2022-11-16T12:43:48.074Z,84.46
2022-11-16T12:46:58.574Z,84.96
2022-11-16T12:50:15.551Z,85.73
2022-11-16T12:53:37.972Z,85.75
2022-11-16T12:56:51.793Z,86.09
2022-11-16T13:00:06.983Z,86.44
2022-11-16T13:03:18.964Z,86.27
2022-11-16T13:06:29.018Z,86.57
2022-11-16T13:09:36.360Z,86.88
2022-11-16T13:12:39.514Z,86.92
2022-11-16T13:15:46.404Z,86.71
2022-11-16T13:18:49.569Z,87.21
2022-11-16T13:22:02.684Z,85.92
2022-11-16T13:25:18.615Z,86.13
2022-11-16T13:28:33.281Z,86.50
2022-11-16T13:31:41.629Z,87.81
2022-11-16T13:34:45.859Z,87.42
2022-11-16T13:37:49.400Z,87.51
2022-11-16T13:40:51.897Z,88.32
2022-11-16T13:43:54.946Z,87.70
2022-11-16T13:47:04.450Z,88.32
2022-11-16T13:50:18.456Z,87.61
2022-11-16T13:56:53.556Z,87.18
2022-11-16T14:00:09.796Z,88.04
2022-11-16T14:03:28.934Z,87.92
2022-11-16T14:06:56.700Z,87.74
2022-11-16T14:10:00.433Z,88.19
2022-11-16T14:13:04.564Z,88.37
2022-11-16T14:16:54.862Z,89.21
2022-11-16T14:19:59.179Z,89.47
2022-11-16T14:23:23.034Z,88.59
2022-11-16T14:26:37.308Z,88.89
2022-11-16T14:29:55.765Z,89.88
2022-11-16T14:33:01.751Z,89.27
2022-11-16T14:36:10.803Z,88.88
2022-11-16T14:39:26.490Z,89.19
2022-11-16T14:42:38.141Z,89.41
2022-11-16T14:45:56.175Z,90.04
2022-11-16T14:49:01.611Z,89.72
2022-11-16T14:52:08.296Z,90.38
2022-11-16T14:55:18.516Z,90.79
2022-11-16T14:58:23.010Z,90.15
2022-11-16T15:01:28.438Z,90.28
2022-11-16T15:04:31.325Z,90.43
2022-11-16T15:07:35.203Z,90.58
2022-11-16T15:10:49.545Z,90.82
2022-11-16T15:13:55.350Z,91.10
2022-11-16T15:16:59.970Z,90.90
2022-11-16T15:20:04.539Z,90.58
2022-11-16T15:23:14.887Z,90.79
2022-11-16T15:26:20.594Z,90.51
2022-11-16T15:29:24.630Z,90.40
2022-11-16T15:32:27.386Z,90.72
2022-11-16T15:35:31.859Z,90.64
2022-11-16T15:38:37.604Z,90.75
2022-11-16T15:41:40.817Z,90.26
2022-11-16T15:44:44.006Z,90.56
2022-11-16T15:47:47.442Z,91.03
2022-11-16T15:51:07.216Z,90.14
2022-11-16T15:54:21.033Z,90.85
2022-11-16T15:57:24.948Z,90.61
2022-11-16T16:00:28.269Z,90.40
2022-11-16T16:03:34.833Z,90.69
2022-11-16T16:06:46.640Z,91.08
2022-11-16T16:10:22.215Z,90.92
2022-11-16T16:13:50.609Z,90.99
2022-11-16T16:16:57.941Z,90.64
2022-11-16T16:20:02.689Z,90.81
2022-11-16T16:23:07.626Z,91.03
2022-11-16T16:26:11.486Z,91.12
2022-11-16T16:29:14.020Z,90.85
2022-11-16T16:32:24.335Z,90.92
2022-11-16T16:35:27.033Z,90.50
2022-11-16T16:38:29.776Z,90.87
2022-11-16T16:41:33.698Z,91.13
2022-11-16T16:44:36.509Z,91.13
2022-11-16T16:47:39.160Z,91.13
2022-11-16T16:50:42.101Z,91.31
2022-11-16T16:53:45.395Z,91.52
2022-11-16T16:56:49.346Z,91.28
2022-11-16T16:59:51.968Z,91.17
2022-11-16T17:02:54.370Z,91.12
2022-11-16T17:05:59.831Z,91.41
2022-11-16T17:09:02.577Z,90.92
2022-11-16T17:12:06.915Z,91.53
2022-11-16T17:15:13.841Z,91.38
2022-11-16T17:18:19.384Z,91.56
2022-11-16T17:21:22.181Z,91.10
2022-11-16T17:24:24.835Z,90.90
2022-11-16T17:27:28.928Z,91.16
2022-11-16T17:30:31.784Z,90.91
2022-11-16T17:33:34.766Z,91.29
2022-11-16T17:36:37.814Z,91.14
2022-11-16T17:39:40.727Z,91.31
2022-11-16T17:42:45.027Z,91.25
2022-11-16T17:45:47.677Z,91.17
2022-11-16T17:48:50.883Z,91.57
2022-11-16T17:51:54.097Z,91.25
2022-11-16T17:54:56.588Z,91.13
2022-11-16T17:58:00.532Z,91.09
2022-11-16T18:01:03.267Z,90.93
2022-11-16T18:04:06.205Z,90.90
2022-11-16T18:07:08.995Z,91.30
2022-11-16T18:10:18.882Z,90.77
2022-11-16T18:13:23.409Z,91.36
2022-11-16T18:16:27.888Z,91.33
2022-11-16T18:19:30.368Z,91.65
2022-11-16T18:22:33.045Z,91.25
2022-11-16T18:25:36.925Z,91.41
2022-11-16T18:28:41.439Z,91.04
2022-11-16T18:31:44.403Z,90.67
2022-11-16T18:34:47.175Z,90.97
2022-11-16T18:37:49.913Z,90.94
2022-11-16T18:41:03.752Z,91.15
2022-11-16T18:44:08.185Z,91.20
2022-11-16T18:47:10.913Z,91.41
2022-11-16T18:50:20.073Z,91.32
2022-11-16T18:53:25.642Z,91.71
2022-11-16T18:56:28.831Z,91.48
2022-11-16T18:59:32.976Z,91.33
2022-11-16T19:02:35.884Z,91.48
2022-11-16T19:05:38.837Z,91.09
2022-11-16T19:08:54.058Z,92.04
2022-11-16T19:11:58.319Z,92.12
2022-11-16T19:15:02.772Z,91.54
2022-11-16T19:18:20.904Z,91.66
2022-11-16T19:21:24.522Z,92.28
2022-11-16T19:24:27.360Z,92.09
2022-11-16T19:27:30.137Z,91.84
2022-11-16T19:30:53.224Z,91.52
2022-11-16T19:33:57.735Z,91.17
2022-11-16T19:37:00.480Z,91.05
2022-11-16T19:40:03.604Z,90.79
2022-11-16T19:43:07.584Z,91.30
2022-11-16T19:46:16.359Z,91.41
2022-11-16T19:49:20.666Z,91.49
2022-11-16T19:52:23.525Z,91.98
2022-11-16T19:55:26.687Z,92.16
2022-11-16T19:58:29.522Z,91.73
2022-11-16T20:01:33.648Z,91.52
2022-11-16T20:04:36.404Z,92.19
2022-11-16T20:07:39.305Z,92.02
2022-11-16T20:10:42.055Z,91.81
2022-11-16T20:13:44.740Z,91.57
2022-11-16T20:16:50.343Z,91.77
2022-11-16T20:19:52.976Z,91.66
2022-11-16T20:22:55.713Z,91.47
2022-11-16T20:25:58.400Z,91.67
2022-11-16T20:29:00.927Z,91.44
2022-11-16T20:32:05.316Z,91.56
2022-11-16T20:35:08.662Z,91.56
2022-11-16T20:38:11.421Z,91.77
2022-11-16T20:41:15.797Z,91.16
2022-11-16T20:44:21.981Z,91.18
2022-11-16T20:47:25.984Z,91.32
2022-11-16T20:50:28.479Z,91.47
2022-11-16T20:53:32.487Z,91.47
2022-11-16T20:56:35.826Z,91.03
2022-11-16T20:59:38.317Z,91.28
2022-11-16T21:02:42.634Z,91.73
2022-11-16T21:05:50.156Z,91.68
2022-11-16T21:08:53.739Z,91.47
2022-11-16T21:12:14.745Z,91.76
2022-11-16T21:15:17.178Z,91.72
2022-11-16T21:18:23.351Z,91.76
2022-11-16T21:21:28.129Z,91.72
2022-11-16T21:24:32.124Z,91.96
2022-11-16T21:27:34.596Z,92.05
2022-11-16T21:30:37.166Z,91.57
2022-11-16T21:33:40.961Z,92.02
2022-11-16T21:36:43.452Z,92.33
2022-11-16T21:39:47.031Z,91.79
2022-11-16T21:42:51.222Z,91.62
2022-11-16T21:46:01.933Z,92.05
2022-11-16T21:49:07.530Z,91.70
2022-11-16T21:52:10.060Z,92.02
2022-11-16T21:55:12.675Z,91.68
2022-11-16T21:58:15.108Z,91.63
2022-11-16T22:01:17.713Z,91.32
2022-11-16T22:04:40.202Z,91.93
2022-11-16T22:07:42.824Z,91.76
2022-11-16T22:10:49.674Z,92.00
2022-11-16T22:13:52.167Z,92.76
2022-11-16T22:16:54.652Z,92.70
2022-11-16T22:19:58.756Z,91.42
2022-11-16T22:23:01.208Z,90.43
2022-11-16T22:26:05.443Z,89.61
2022-11-16T22:29:07.902Z,89.53
2022-11-16T22:32:10.557Z,90.26
2022-11-16T22:35:14.459Z,90.99
2022-11-16T22:38:17.000Z,91.03
2022-11-16T22:41:20.217Z,90.98
2022-11-16T22:44:22.684Z,90.76
2022-11-16T22:47:25.135Z,90.96
2022-11-16T22:50:28.882Z,91.20
2022-11-16T22:53:31.493Z,91.34
2022-11-16T22:56:34.252Z,90.88
2022-11-16T22:59:36.786Z,90.59
2022-11-16T23:02:39.219Z,90.36
2022-11-16T23:05:43.043Z,90.00
2022-11-16T23:08:45.491Z,90.13
2022-11-16T23:12:06.415Z,89.67
2022-11-16T23:15:30.304Z,89.78
2022-11-16T23:18:33.407Z,90.09
2022-11-16T23:22:09.703Z,90.23
2022-11-16T23:25:30.809Z,90.42
2022-11-16T23:28:33.270Z,90.35
2022-11-16T23:31:35.904Z,90.24
2022-11-16T23:34:38.375Z,89.94
2022-11-16T23:37:52.757Z,90.11
2022-11-16T23:40:55.293Z,90.40
2022-11-16T23:43:57.775Z,90.40
2022-11-16T23:47:00.174Z,90.25
2022-11-16T23:50:02.914Z,89.81
2022-11-16T23:53:07.980Z,90.41
2022-11-16T23:56:10.460Z,90.83
2022-11-16T23:59:13.090Z,90.78
